createdAt,value
2017-10-15T00:00:40.517Z,31
2017-10-15T00:01:40.552Z,31.1
2017-10-15T00:02:40.599Z,31.1
2017-10-15T00:03:40.715Z,31.1
2017-10-15T00:04:40.527Z,31
2017-10-15T00:05:40.609Z,31.1
2017-10-15T00:06:40.848Z,31.1
2017-10-15T00:07:40.879Z,31.1
2017-10-15T00:08:40.702Z,31
2017-10-15T00:09:41.224Z,31.1
2017-10-15T00:10:40.974Z,31
2017-10-15T00:11:41.027Z,31
2017-10-15T00:12:41.117Z,31
2017-10-15T00:13:40.969Z,31
2017-10-15T00:14:40.995Z,31
2017-10-15T00:15:41.372Z,31
2017-10-15T00:16:41.387Z,31
2017-10-15T00:17:41.471Z,31
2017-10-15T00:18:41.335Z,31
2017-10-15T00:19:41.537Z,31
2017-10-15T00:20:41.386Z,31
2017-10-15T00:21:41.714Z,31.1
2017-10-15T00:22:41.752Z,31
2017-10-15T00:23:41.780Z,31.1
2017-10-15T00:24:41.782Z,31.1
2017-10-15T00:25:41.817Z,31
2017-10-15T00:26:41.806Z,31.1
2017-10-15T00:27:42.119Z,31.1
2017-10-15T00:28:41.738Z,31.1
2017-10-15T00:29:41.946Z,31
2017-10-15T00:30:41.815Z,31
2017-10-15T00:31:42.097Z,31
2017-10-15T00:32:41.920Z,31
2017-10-15T00:33:41.947Z,31
2017-10-15T00:34:42.208Z,31
2017-10-15T00:35:42.273Z,31
2017-10-15T00:36:42.131Z,31
2017-10-15T00:37:42.398Z,31
2017-10-15T00:38:42.273Z,31
2017-10-15T00:39:42.295Z,31
2017-10-15T00:40:42.279Z,31
2017-10-15T00:41:42.347Z,31
2017-10-15T00:42:42.509Z,31
2017-10-15T00:43:42.295Z,31
2017-10-15T00:44:42.355Z,31
2017-10-15T00:45:42.394Z,31
2017-10-15T00:46:42.482Z,31
2017-10-15T00:47:42.565Z,31
2017-10-15T00:48:42.577Z,31
2017-10-15T00:49:42.894Z,31
2017-10-15T00:50:42.848Z,31
2017-10-15T00:51:42.875Z,31
2017-10-15T00:52:42.952Z,31
2017-10-15T00:53:42.778Z,31
2017-10-15T00:54:43.048Z,31
2017-10-15T00:55:42.900Z,31
2017-10-15T00:56:43.182Z,31
2017-10-15T00:57:43.054Z,31
2017-10-15T00:58:43.038Z,31
2017-10-15T00:59:43.275Z,31
2017-10-15T01:00:44.739Z,31
2017-10-15T01:01:43.358Z,31
2017-10-15T01:02:43.197Z,31
2017-10-15T01:03:43.466Z,31
2017-10-15T01:04:43.323Z,31
2017-10-15T01:05:43.567Z,31
2017-10-15T01:06:43.585Z,31
2017-10-15T01:07:43.499Z,31
2017-10-15T01:08:43.545Z,31
2017-10-15T01:09:43.568Z,31
2017-10-15T01:10:44.102Z,31
2017-10-15T01:11:44.439Z,31
2017-10-15T01:12:44.421Z,31
2017-10-15T01:13:44.508Z,31
2017-10-15T01:14:44.731Z,31
2017-10-15T01:15:44.394Z,31
2017-10-15T01:16:44.661Z,31
2017-10-15T01:17:44.050Z,31
2017-10-15T01:18:44.205Z,31
2017-10-15T01:19:44.525Z,31
2017-10-15T01:20:44.345Z,31
2017-10-15T01:21:44.120Z,31
2017-10-15T01:22:44.115Z,31
2017-10-15T01:23:44.231Z,31
2017-10-15T01:24:44.244Z,31
2017-10-15T01:25:44.195Z,31
2017-10-15T01:26:44.346Z,31
2017-10-15T01:27:44.398Z,31
2017-10-15T01:28:44.646Z,31
2017-10-15T01:29:44.704Z,31
2017-10-15T01:30:44.754Z,31
2017-10-15T01:31:44.658Z,31
2017-10-15T01:32:44.866Z,31
2017-10-15T01:33:45.001Z,31
2017-10-15T01:34:45.077Z,31
2017-10-15T01:35:44.945Z,31
2017-10-15T01:36:44.940Z,31
2017-10-15T01:37:44.921Z,31
2017-10-15T01:38:45.006Z,31
2017-10-15T01:39:45.218Z,31
2017-10-15T01:40:45.210Z,31
2017-10-15T01:41:45.361Z,31
2017-10-15T01:42:45.092Z,31
2017-10-15T01:43:45.794Z,31
2017-10-15T01:44:45.148Z,31
2017-10-15T01:45:45.233Z,31
2017-10-15T01:46:45.337Z,31
2017-10-15T01:47:45.555Z,31
2017-10-15T01:48:45.620Z,31
2017-10-15T01:49:45.494Z,31
2017-10-15T01:50:45.516Z,31
2017-10-15T01:51:45.717Z,31
2017-10-15T01:52:45.550Z,31
2017-10-15T01:53:45.844Z,31
2017-10-15T01:54:45.921Z,31
2017-10-15T01:55:45.704Z,31
2017-10-15T01:56:45.781Z,31
2017-10-15T01:57:45.840Z,31
2017-10-15T01:58:46.090Z,31
2017-10-15T01:59:45.949Z,31
2017-10-15T02:00:46.213Z,31
2017-10-15T02:01:46.220Z,31
2017-10-15T02:02:46.052Z,31
2017-10-15T02:03:46.341Z,31
2017-10-15T02:04:46.314Z,31
2017-10-15T02:05:46.212Z,31
2017-10-15T02:06:46.513Z,31
2017-10-15T02:07:46.318Z,31
2017-10-15T02:08:46.469Z,31
2017-10-15T02:09:46.650Z,31
2017-10-15T02:10:46.690Z,31
2017-10-15T02:11:46.571Z,31
2017-10-15T02:12:46.816Z,31
2017-10-15T02:13:46.864Z,31
2017-10-15T02:14:46.855Z,30.9
2017-10-15T02:15:46.782Z,31
2017-10-15T02:16:47.070Z,30.9
2017-10-15T02:17:46.898Z,31
2017-10-15T02:18:47.120Z,31
2017-10-15T02:19:46.929Z,31
2017-10-15T02:20:47.192Z,31
2017-10-15T02:21:47.070Z,30.9
2017-10-15T02:22:47.147Z,31
2017-10-15T02:23:47.215Z,31
2017-10-15T02:24:47.273Z,30.9
2017-10-15T02:25:47.611Z,31
2017-10-15T02:26:47.361Z,31
2017-10-15T02:27:47.565Z,31
2017-10-15T02:28:47.674Z,31
2017-10-15T02:29:47.683Z,31
2017-10-15T02:30:47.639Z,31
2017-10-15T02:31:47.620Z,31
2017-10-15T02:32:47.860Z,31
2017-10-15T02:33:47.697Z,31
2017-10-15T02:34:47.755Z,31
2017-10-15T02:35:47.806Z,31
2017-10-15T02:36:48.040Z,31
2017-10-15T02:37:47.856Z,30.9
2017-10-15T02:38:47.880Z,30.9
2017-10-15T02:39:48.101Z,30.9
2017-10-15T02:40:48.225Z,30.9
2017-10-15T02:41:48.088Z,30.9
2017-10-15T02:42:48.362Z,30.9
2017-10-15T02:43:48.396Z,30.9
2017-10-15T02:44:48.200Z,30.9
2017-10-15T02:45:48.307Z,30.9
2017-10-15T02:46:48.573Z,30.9
2017-10-15T02:47:48.618Z,31
2017-10-15T02:48:48.701Z,30.9
2017-10-15T02:49:48.467Z,30.9
2017-10-15T02:50:48.706Z,30.9
2017-10-15T02:51:48.608Z,30.9
2017-10-15T02:52:48.653Z,30.9
2017-10-15T02:53:48.848Z,30.9
2017-10-15T02:54:48.724Z,30.9
2017-10-15T02:55:48.838Z,30.9
2017-10-15T02:56:48.892Z,30.9
2017-10-15T02:57:48.858Z,30.9
2017-10-15T02:58:49.134Z,30.9
2017-10-15T02:59:48.986Z,30.9
2017-10-15T03:00:49.037Z,30.9
2017-10-15T03:01:49.083Z,30.9
2017-10-15T03:02:49.416Z,30.9
2017-10-15T03:03:49.442Z,30.9
2017-10-15T03:04:49.252Z,30.9
2017-10-15T03:05:49.557Z,30.9
2017-10-15T03:06:49.586Z,30.9
2017-10-15T03:07:49.406Z,30.9
2017-10-15T03:08:49.702Z,30.9
2017-10-15T03:09:49.709Z,30.9
2017-10-15T03:10:49.727Z,30.9
2017-10-15T03:11:49.526Z,30.9
2017-10-15T03:12:49.568Z,30.9
2017-10-15T03:13:49.689Z,30.9
2017-10-15T03:14:49.754Z,30.9
2017-10-15T03:15:49.840Z,30.9
2017-10-15T03:16:49.834Z,30.9
2017-10-15T03:17:49.880Z,30.9
2017-10-15T03:18:50.087Z,30.9
2017-10-15T03:19:50.028Z,30.9
2017-10-15T03:20:50.058Z,30.9
2017-10-15T03:21:50.391Z,30.9
2017-10-15T03:22:50.212Z,30.9
2017-10-15T03:23:50.390Z,30.9
2017-10-15T03:24:50.216Z,30.9
2017-10-15T03:25:50.403Z,30.9
2017-10-15T03:26:50.507Z,30.9
2017-10-15T03:27:50.538Z,30.9
2017-10-15T03:28:50.407Z,30.9
2017-10-15T03:29:50.674Z,30.9
2017-10-15T03:30:50.533Z,30.9
2017-10-15T03:31:50.793Z,30.9
2017-10-15T03:32:50.718Z,30.9
2017-10-15T03:33:50.730Z,30.9
2017-10-15T03:34:50.770Z,30.9
2017-10-15T03:35:51.039Z,30.9
2017-10-15T03:36:50.838Z,30.9
2017-10-15T03:37:50.933Z,30.9
2017-10-15T03:38:51.215Z,30.9
2017-10-15T03:39:51.300Z,30.8
2017-10-15T03:40:51.277Z,30.9
2017-10-15T03:41:51.202Z,30.9
2017-10-15T03:42:51.494Z,30.9
2017-10-15T03:43:51.470Z,30.9
2017-10-15T03:44:51.632Z,30.9
2017-10-15T03:45:51.482Z,30.9
2017-10-15T03:46:51.460Z,30.9
2017-10-15T03:47:51.536Z,30.9
2017-10-15T03:48:51.817Z,30.9
2017-10-15T03:49:51.872Z,30.9
2017-10-15T03:50:51.894Z,30.9
2017-10-15T03:51:51.903Z,30.9
2017-10-15T03:52:52.002Z,30.9
2017-10-15T03:53:52.051Z,30.9
2017-10-15T03:54:52.065Z,30.9
2017-10-15T03:55:52.188Z,30.9
2017-10-15T03:56:52.193Z,30.9
2017-10-15T03:57:52.301Z,30.9
2017-10-15T03:58:52.143Z,30.9
2017-10-15T03:59:52.381Z,30.9
2017-10-15T04:00:52.193Z,30.9
2017-10-15T04:01:52.454Z,30.9
2017-10-15T04:02:52.465Z,30.9
2017-10-15T04:03:52.286Z,30.9
2017-10-15T04:04:52.531Z,30.9
2017-10-15T04:05:52.602Z,30.9
2017-10-15T04:06:52.550Z,30.9
2017-10-15T04:07:52.646Z,30.9
2017-10-15T04:08:52.687Z,30.9
2017-10-15T04:09:52.773Z,30.8
2017-10-15T04:10:52.787Z,30.9
2017-10-15T04:11:52.832Z,30.9
2017-10-15T04:12:52.678Z,30.9
2017-10-15T04:13:52.763Z,30.9
2017-10-15T04:14:52.831Z,30.9
2017-10-15T04:15:53.110Z,30.8
2017-10-15T04:16:53.171Z,30.9
2017-10-15T04:17:53.199Z,30.9
2017-10-15T04:18:53.252Z,30.9
2017-10-15T04:19:53.315Z,30.9
2017-10-15T04:20:53.359Z,30.9
2017-10-15T04:21:53.390Z,30.8
2017-10-15T04:22:53.434Z,30.8
2017-10-15T04:23:53.252Z,30.8
2017-10-15T04:24:53.555Z,30.9
2017-10-15T04:25:53.557Z,30.9
2017-10-15T04:26:53.708Z,30.9
2017-10-15T04:27:53.779Z,30.9
2017-10-15T04:28:53.606Z,30.9
2017-10-15T04:29:53.823Z,30.9
2017-10-15T04:30:53.636Z,30.9
2017-10-15T04:31:53.800Z,30.8
2017-10-15T04:32:53.797Z,30.8
2017-10-15T04:33:54.071Z,30.8
2017-10-15T04:34:53.925Z,30.8
2017-10-15T04:35:54.181Z,30.8
2017-10-15T04:36:54.233Z,30.8
2017-10-15T04:37:54.109Z,30.8
2017-10-15T04:38:54.093Z,30.8
2017-10-15T04:39:54.367Z,30.8
2017-10-15T04:40:54.454Z,30.8
2017-10-15T04:41:54.257Z,30.8
2017-10-15T04:42:54.523Z,30.8
2017-10-15T04:43:54.673Z,30.9
2017-10-15T04:44:54.582Z,30.9
2017-10-15T04:45:54.534Z,30.9
2017-10-15T04:46:54.735Z,30.9
2017-10-15T04:47:54.833Z,30.9
2017-10-15T04:48:54.893Z,30.8
2017-10-15T04:49:54.832Z,30.8
2017-10-15T04:50:54.864Z,30.8
2017-10-15T04:51:54.874Z,30.8
2017-10-15T04:52:55.095Z,30.8
2017-10-15T04:53:55.131Z,30.8
2017-10-15T04:54:55.181Z,30.8
2017-10-15T04:55:55.031Z,30.8
2017-10-15T04:56:55.037Z,30.8
2017-10-15T04:57:55.129Z,30.8
2017-10-15T04:58:55.499Z,30.8
2017-10-15T04:59:55.292Z,30.8
2017-10-15T05:00:55.235Z,30.8
2017-10-15T05:01:55.485Z,30.8
2017-10-15T05:02:55.423Z,30.8
2017-10-15T05:03:55.556Z,30.8
2017-10-15T05:04:55.790Z,30.8
2017-10-15T05:05:55.651Z,30.8
2017-10-15T05:06:55.678Z,30.8
2017-10-15T05:07:55.738Z,30.8
2017-10-15T05:08:55.845Z,30.8
2017-10-15T05:09:55.896Z,30.8
2017-10-15T05:10:55.934Z,30.8
2017-10-15T05:11:55.931Z,30.8
2017-10-15T05:12:55.941Z,30.8
2017-10-15T05:13:56.002Z,30.8
2017-10-15T05:14:56.253Z,30.8
2017-10-15T05:15:56.122Z,30.8
2017-10-15T05:16:56.102Z,30.8
2017-10-15T05:17:56.384Z,30.8
2017-10-15T05:18:56.416Z,30.8
2017-10-15T05:19:56.294Z,30.8
2017-10-15T05:20:56.550Z,30.8
2017-10-15T05:21:56.419Z,30.8
2017-10-15T05:22:56.548Z,30.8
2017-10-15T05:23:56.388Z,30.8
2017-10-15T05:24:56.733Z,30.8
2017-10-15T05:25:56.645Z,30.8
2017-10-15T05:26:56.949Z,30.8
2017-10-15T05:27:56.916Z,30.8
2017-10-15T05:28:56.753Z,30.8
2017-10-15T05:29:57.036Z,30.8
2017-10-15T05:30:57.060Z,30.8
2017-10-15T05:31:56.956Z,30.8
2017-10-15T05:32:56.982Z,30.8
2017-10-15T05:33:57.169Z,30.8
2017-10-15T05:34:57.061Z,30.8
2017-10-15T05:35:57.116Z,30.8
2017-10-15T05:36:57.314Z,30.8
2017-10-15T05:37:57.182Z,30.8
2017-10-15T05:38:57.238Z,30.8
2017-10-15T05:39:57.263Z,30.8
2017-10-15T05:40:57.267Z,30.8
2017-10-15T05:41:57.470Z,30.8
2017-10-15T05:42:57.528Z,30.8
2017-10-15T05:43:58.324Z,30.8
2017-10-15T05:44:57.618Z,30.8
2017-10-15T05:45:57.702Z,30.8
2017-10-15T05:46:57.515Z,30.8
2017-10-15T05:47:57.835Z,30.8
2017-10-15T05:48:57.862Z,30.8
2017-10-15T05:49:57.929Z,30.8
2017-10-15T05:50:57.955Z,30.8
2017-10-15T05:51:58.127Z,30.8
2017-10-15T05:52:57.884Z,30.8
2017-10-15T05:53:58.192Z,30.8
2017-10-15T05:54:58.035Z,30.8
2017-10-15T05:55:58.062Z,30.8
2017-10-15T05:56:58.332Z,30.8
2017-10-15T05:57:58.368Z,30.8
2017-10-15T05:58:58.236Z,30.8
2017-10-15T05:59:58.435Z,30.8
2017-10-15T06:00:58.465Z,30.8
2017-10-15T06:01:58.279Z,30.8
2017-10-15T06:02:58.275Z,30.8
2017-10-15T06:03:58.618Z,30.8
2017-10-15T06:04:58.381Z,30.8
2017-10-15T06:05:58.508Z,30.8
2017-10-15T06:06:58.700Z,30.8
2017-10-15T06:07:58.787Z,30.9
2017-10-15T06:08:58.841Z,30.9
2017-10-15T06:09:58.682Z,30.9
2017-10-15T06:10:58.750Z,30.9
2017-10-15T06:11:59.024Z,30.9
2017-10-15T06:12:58.871Z,31
2017-10-15T06:13:58.885Z,31
2017-10-15T06:14:58.978Z,31
2017-10-15T06:15:59.010Z,31
2017-10-15T06:16:59.226Z,31.1
2017-10-15T06:17:59.018Z,31.1
2017-10-15T06:18:59.026Z,31.1
2017-10-15T06:19:59.129Z,31.2
2017-10-15T06:20:59.433Z,31.2
2017-10-15T06:21:59.474Z,31.3
2017-10-15T06:22:59.357Z,31.3
2017-10-15T06:23:59.377Z,31.4
2017-10-15T06:24:59.425Z,31.5
2017-10-15T06:25:59.702Z,31.5
2017-10-15T06:26:59.573Z,31.5
2017-10-15T06:27:59.616Z,31.6
2017-10-15T06:28:59.843Z,31.6
2017-10-15T06:29:59.739Z,31.6
2017-10-15T06:30:59.821Z,31.7
2017-10-15T06:32:00.090Z,31.7
2017-10-15T06:32:59.899Z,31.8
2017-10-15T06:34:00.163Z,31.8
2017-10-15T06:35:00.058Z,31.8
2017-10-15T06:36:00.062Z,31.8
2017-10-15T06:37:00.093Z,31.9
2017-10-15T06:38:00.400Z,31.9
2017-10-15T06:39:00.258Z,31.9
2017-10-15T06:40:00.282Z,32
2017-10-15T06:41:00.401Z,32
2017-10-15T06:42:00.413Z,32
2017-10-15T06:43:00.603Z,32.1
2017-10-15T06:44:00.634Z,32.1
2017-10-15T06:45:00.679Z,32.1
2017-10-15T06:46:00.778Z,32.2
2017-10-15T06:47:00.577Z,32.2
2017-10-15T06:48:00.696Z,32.2
2017-10-15T06:49:00.900Z,32.2
2017-10-15T06:50:00.988Z,32.3
2017-10-15T06:51:01.030Z,32.3
2017-10-15T06:52:01.043Z,32.3
2017-10-15T06:53:01.107Z,32.4
2017-10-15T06:54:01.050Z,32.4
2017-10-15T06:55:01.284Z,32.4
2017-10-15T06:56:01.266Z,32.5
2017-10-15T06:57:01.163Z,32.5
2017-10-15T06:58:01.324Z,32.5
2017-10-15T06:59:01.188Z,32.5
2017-10-15T07:00:01.168Z,32.5
2017-10-15T07:01:01.481Z,32.6
2017-10-15T07:02:01.498Z,32.7
2017-10-15T07:03:01.618Z,32.7
2017-10-15T07:04:01.457Z,32.7
2017-10-15T07:05:01.487Z,32.7
2017-10-15T07:06:01.591Z,32.8
2017-10-15T07:07:01.840Z,32.8
2017-10-15T07:08:01.738Z,32.9
2017-10-15T07:09:02.027Z,32.9
2017-10-15T07:10:01.918Z,33
2017-10-15T07:11:02.137Z,33
2017-10-15T07:12:02.056Z,33
2017-10-15T07:13:02.039Z,33.1
2017-10-15T07:14:02.264Z,33.2
2017-10-15T07:15:02.057Z,33.2
2017-10-15T07:16:02.336Z,33.3
2017-10-15T07:17:02.348Z,33.3
2017-10-15T07:18:02.280Z,33.3
2017-10-15T07:19:02.253Z,33.3
2017-10-15T07:20:02.511Z,33.4
2017-10-15T07:21:02.399Z,33.4
2017-10-15T07:22:02.581Z,33.5
2017-10-15T07:23:02.671Z,33.6
2017-10-15T07:24:02.693Z,33.7
2017-10-15T07:25:02.585Z,33.8
2017-10-15T07:26:02.858Z,34
2017-10-15T07:27:02.811Z,34.1
2017-10-15T07:28:02.747Z,34.2
2017-10-15T07:29:02.989Z,34.3
2017-10-15T07:30:02.781Z,34.4
2017-10-15T07:31:02.783Z,34.4
2017-10-15T07:32:03.006Z,34.5
2017-10-15T07:33:03.033Z,34.5
2017-10-15T07:34:03.130Z,34.6
2017-10-15T07:35:03.041Z,34.7
2017-10-15T07:36:03.142Z,34.8
2017-10-15T07:37:03.210Z,34.9
2017-10-15T07:38:03.123Z,35
2017-10-15T07:39:03.296Z,35.1
2017-10-15T07:40:03.349Z,35.2
2017-10-15T07:41:03.208Z,35.3
2017-10-15T07:42:03.272Z,35.4
2017-10-15T07:43:03.364Z,35.4
2017-10-15T07:44:03.713Z,35.5
2017-10-15T07:45:03.558Z,35.6
2017-10-15T07:46:03.907Z,35.6
2017-10-15T07:47:03.754Z,35.6
2017-10-15T07:48:04.019Z,35.7
2017-10-15T07:49:03.903Z,35.7
2017-10-15T07:50:03.789Z,35.7
2017-10-15T07:51:04.092Z,35.8
2017-10-15T07:52:03.925Z,35.7
2017-10-15T07:53:03.994Z,35.8
2017-10-15T07:54:04.287Z,35.8
2017-10-15T07:55:04.163Z,35.8
2017-10-15T07:56:04.372Z,35.8
2017-10-15T07:57:04.175Z,35.8
2017-10-15T07:58:04.515Z,35.8
2017-10-15T07:59:04.298Z,35.7
2017-10-15T08:00:04.419Z,35.7
2017-10-15T08:01:04.599Z,35.7
2017-10-15T08:02:04.521Z,35.7
2017-10-15T08:03:04.527Z,35.7
2017-10-15T08:04:04.666Z,35.7
2017-10-15T08:05:04.675Z,35.7
2017-10-15T08:06:04.904Z,35.7
2017-10-15T08:07:05.004Z,35.7
2017-10-15T08:08:04.786Z,35.7
2017-10-15T08:09:04.987Z,35.7
2017-10-15T08:10:04.994Z,35.7
2017-10-15T08:11:04.856Z,35.8
2017-10-15T08:12:05.175Z,35.8
2017-10-15T08:13:05.236Z,35.8
2017-10-15T08:14:05.134Z,35.8
2017-10-15T08:15:05.445Z,35.7
2017-10-15T08:16:05.292Z,35.5
2017-10-15T08:17:05.534Z,35.3
2017-10-15T08:18:05.307Z,35.2
2017-10-15T08:19:05.354Z,35
2017-10-15T08:20:05.435Z,34.8
2017-10-15T08:21:05.520Z,34.7
2017-10-15T08:22:05.761Z,34.5
2017-10-15T08:23:05.623Z,34.4
2017-10-15T08:24:05.611Z,34.3
2017-10-15T08:25:05.709Z,34.2
2017-10-15T08:26:05.791Z,34.1
2017-10-15T08:27:06.034Z,34
2017-10-15T08:28:06.106Z,33.9
2017-10-15T08:29:06.145Z,33.8
2017-10-15T08:30:05.917Z,33.8
2017-10-15T08:31:05.951Z,33.7
2017-10-15T08:32:06.205Z,33.6
2017-10-15T08:33:06.149Z,33.6
2017-10-15T08:34:06.121Z,33.5
2017-10-15T08:35:06.326Z,33.4
2017-10-15T08:36:06.166Z,33.4
2017-10-15T08:37:06.502Z,33.4
2017-10-15T08:38:06.555Z,33.3
2017-10-15T08:39:06.626Z,33.3
2017-10-15T08:40:06.678Z,33.3
2017-10-15T08:41:06.757Z,33.2
2017-10-15T08:42:06.660Z,33.2
2017-10-15T08:43:06.862Z,33.2
2017-10-15T08:44:06.835Z,33.2
2017-10-15T08:45:06.993Z,33.1
2017-10-15T08:46:06.851Z,33.1
2017-10-15T08:47:07.092Z,33.1
2017-10-15T08:48:07.161Z,33.1
2017-10-15T08:49:07.027Z,33.1
2017-10-15T08:50:07.080Z,33
2017-10-15T08:51:07.462Z,33
2017-10-15T08:52:07.237Z,33
2017-10-15T08:53:07.334Z,33
2017-10-15T08:54:07.457Z,33
2017-10-15T08:55:07.491Z,33
2017-10-15T08:56:07.523Z,33
2017-10-15T08:57:07.734Z,33
2017-10-15T08:58:07.835Z,33
2017-10-15T08:59:07.926Z,32.9
2017-10-15T09:00:07.818Z,32.9
2017-10-15T09:01:07.793Z,32.9
2017-10-15T09:02:07.871Z,32.9
2017-10-15T09:03:07.952Z,32.9
2017-10-15T09:04:08.241Z,32.9
2017-10-15T09:05:08.112Z,32.9
2017-10-15T09:06:08.118Z,32.9
2017-10-15T09:07:08.179Z,32.9
2017-10-15T09:08:08.304Z,32.8
2017-10-15T09:09:08.312Z,32.8
2017-10-15T09:10:08.351Z,32.8
2017-10-15T09:11:08.413Z,32.8
2017-10-15T09:12:08.388Z,32.8
2017-10-15T09:13:08.373Z,32.8
2017-10-15T09:14:08.648Z,32.8
2017-10-15T09:15:08.663Z,32.8
2017-10-15T09:16:08.574Z,32.8
2017-10-15T09:17:08.694Z,32.8
2017-10-15T09:18:08.891Z,32.8
2017-10-15T09:19:08.770Z,32.8
2017-10-15T09:20:08.819Z,32.8
2017-10-15T09:21:08.796Z,32.8
2017-10-15T09:22:09.113Z,32.8
2017-10-15T09:23:09.026Z,32.7
2017-10-15T09:24:09.234Z,32.8
2017-10-15T09:25:09.079Z,32.8
2017-10-15T09:26:09.300Z,32.7
2017-10-15T09:27:09.293Z,32.8
2017-10-15T09:28:09.194Z,32.8
2017-10-15T09:29:09.235Z,32.8
2017-10-15T09:30:09.323Z,32.8
2017-10-15T09:31:09.372Z,32.8
2017-10-15T09:32:09.643Z,32.7
2017-10-15T09:33:09.589Z,32.7
2017-10-15T09:34:09.439Z,32.7
2017-10-15T09:35:09.772Z,32.7
2017-10-15T09:36:09.717Z,32.7
2017-10-15T09:37:09.748Z,32.7
2017-10-15T09:38:09.656Z,32.7
2017-10-15T09:39:09.673Z,32.7
2017-10-15T09:40:09.732Z,32.7
2017-10-15T09:41:09.840Z,32.7
2017-10-15T09:42:10.101Z,32.7
2017-10-15T09:43:10.208Z,32.7
2017-10-15T09:44:10.087Z,32.7
2017-10-15T09:45:10.122Z,32.7
2017-10-15T09:46:10.238Z,32.7
2017-10-15T09:47:10.482Z,32.7
2017-10-15T09:48:10.483Z,32.7
2017-10-15T09:49:10.577Z,32.7
2017-10-15T09:50:10.396Z,32.7
2017-10-15T09:51:10.660Z,32.7
2017-10-15T09:52:10.675Z,32.7
2017-10-15T09:53:10.558Z,32.7
2017-10-15T09:54:10.778Z,32.7
2017-10-15T09:55:10.652Z,32.7
2017-10-15T09:56:10.944Z,32.7
2017-10-15T09:57:11.007Z,32.7
2017-10-15T09:58:10.822Z,32.7
2017-10-15T09:59:11.123Z,32.7
2017-10-15T10:00:11.005Z,32.7
2017-10-15T10:01:11.373Z,32.7
2017-10-15T10:02:11.264Z,32.7
2017-10-15T10:03:11.313Z,32.7
2017-10-15T10:04:11.148Z,32.7
2017-10-15T10:05:11.262Z,32.7
2017-10-15T10:06:11.455Z,32.7
2017-10-15T10:07:11.778Z,32.7
2017-10-15T10:08:11.380Z,32.7
2017-10-15T10:09:11.436Z,32.7
2017-10-15T10:10:11.463Z,32.7
2017-10-15T10:11:11.674Z,32.7
2017-10-15T10:12:11.534Z,32.7
2017-10-15T10:13:11.923Z,32.7
2017-10-15T10:14:11.722Z,32.7
2017-10-15T10:15:11.957Z,32.7
2017-10-15T10:16:11.805Z,32.7
2017-10-15T10:17:11.888Z,32.7
2017-10-15T10:22:01.785Z,32.6
2017-10-15T10:23:01.472Z,32.6
2017-10-15T10:24:01.379Z,32.6
2017-10-15T10:25:01.509Z,32.6
2017-10-15T10:26:01.743Z,32.6
2017-10-15T10:27:01.541Z,32.6
2017-10-15T10:28:01.882Z,32.6
2017-10-15T10:29:01.712Z,32.6
2017-10-15T10:30:02.018Z,32.7
2017-10-15T10:31:02.092Z,32.7
2017-10-15T10:32:02.110Z,32.7
2017-10-15T10:33:01.964Z,32.7
2017-10-15T10:34:02.424Z,32.7
2017-10-15T10:35:02.295Z,32.7
2017-10-15T10:36:02.255Z,32.7
2017-10-15T10:37:02.137Z,32.7
2017-10-15T10:38:02.366Z,32.7
2017-10-15T10:39:02.483Z,32.7
2017-10-15T10:40:02.772Z,32.7
2017-10-15T10:41:02.486Z,32.7
2017-10-15T10:42:02.609Z,32.7
2017-10-15T10:43:02.502Z,32.7
2017-10-15T10:44:02.506Z,32.7
2017-10-15T10:45:02.809Z,32.7
2017-10-15T10:46:02.994Z,32.7
2017-10-15T10:47:02.974Z,32.7
2017-10-15T10:48:02.798Z,32.7
2017-10-15T10:49:02.821Z,32.7
2017-10-15T10:50:03.065Z,32.7
2017-10-15T10:51:02.875Z,32.7
2017-10-15T10:52:03.130Z,32.7
2017-10-15T10:53:03.180Z,32.7
2017-10-15T10:54:03.171Z,32.7
2017-10-15T10:55:03.243Z,32.7
2017-10-15T10:56:03.017Z,32.7
2017-10-15T10:57:03.078Z,32.7
2017-10-15T10:58:03.634Z,32.7
2017-10-15T10:59:03.361Z,32.7
2017-10-15T11:00:03.405Z,32.7
2017-10-15T11:01:03.276Z,32.7
2017-10-15T11:02:03.522Z,32.7
2017-10-15T11:03:03.327Z,32.7
2017-10-15T11:04:03.604Z,32.7
2017-10-15T11:05:03.474Z,32.7
2017-10-15T11:06:03.603Z,32.7
2017-10-15T11:07:03.713Z,32.8
2017-10-15T11:08:03.697Z,32.7
2017-10-15T11:09:03.700Z,32.8
2017-10-15T11:10:03.843Z,32.8
2017-10-15T11:11:03.626Z,32.8
2017-10-15T11:12:03.844Z,32.7
2017-10-15T11:13:03.724Z,32.7
2017-10-15T11:14:04.053Z,32.7
2017-10-15T11:15:04.168Z,32.7
2017-10-15T11:16:04.493Z,32.7
2017-10-15T11:17:04.012Z,32.7
2017-10-15T11:18:04.147Z,32.7
2017-10-15T11:19:04.268Z,32.7
2017-10-15T11:20:04.173Z,32.7
2017-10-15T11:21:04.420Z,32.7
2017-10-15T11:22:04.812Z,32.8
2017-10-15T11:23:04.581Z,32.7
2017-10-15T11:24:04.456Z,32.7
2017-10-15T11:25:04.714Z,32.7
2017-10-15T11:26:04.807Z,32.7
2017-10-15T11:27:04.808Z,32.7
2017-10-15T11:28:04.953Z,32.7
2017-10-15T11:29:04.805Z,32.7
2017-10-15T11:30:05.017Z,32.7
2017-10-15T11:31:04.887Z,32.7
2017-10-15T11:32:04.946Z,32.7
2017-10-15T11:33:05.195Z,32.7
2017-10-15T11:34:05.303Z,32.8
2017-10-15T11:35:05.137Z,32.8
2017-10-15T11:36:05.462Z,32.7
2017-10-15T11:37:05.470Z,32.8
2017-10-15T11:38:05.555Z,32.8
2017-10-15T11:39:05.572Z,32.8
2017-10-15T11:40:05.708Z,32.8
2017-10-15T11:41:05.654Z,32.8
2017-10-15T11:42:05.700Z,32.7
2017-10-15T11:43:05.548Z,32.7
2017-10-15T11:44:05.540Z,32.7
2017-10-15T11:45:05.656Z,32.7
2017-10-15T11:46:06.125Z,32.7
2017-10-15T11:47:05.687Z,32.7
2017-10-15T11:48:05.964Z,32.8
2017-10-15T11:49:06.026Z,32.8
2017-10-15T11:50:05.833Z,32.8
2017-10-15T11:51:06.014Z,32.8
2017-10-15T11:52:06.152Z,32.8
2017-10-15T11:53:05.861Z,32.8
2017-10-15T11:54:06.142Z,32.8
2017-10-15T11:55:06.007Z,32.8
2017-10-15T11:56:06.261Z,32.8
2017-10-15T11:57:06.151Z,32.8
2017-10-15T11:58:06.668Z,32.8
2017-10-15T11:59:06.323Z,32.8
2017-10-15T12:00:06.395Z,32.8
2017-10-15T12:01:06.428Z,32.8
2017-10-15T12:02:06.505Z,32.8
2017-10-15T12:03:06.520Z,32.8
2017-10-15T12:04:07.061Z,32.8
2017-10-15T12:05:06.695Z,32.8
2017-10-15T12:06:06.713Z,32.8
2017-10-15T12:07:06.886Z,32.8
2017-10-15T12:08:06.882Z,32.8
2017-10-15T12:09:06.980Z,32.8
2017-10-15T12:10:07.087Z,32.8
2017-10-15T12:12:07.128Z,32.8
2017-10-15T12:13:07.429Z,32.8
2017-10-15T12:14:07.537Z,32.7
2017-10-15T12:15:07.352Z,32.7
2017-10-15T12:16:07.712Z,32.7
2017-10-15T12:17:07.450Z,32.7
2017-10-15T12:18:07.539Z,32.8
2017-10-15T12:19:07.435Z,32.8
2017-10-15T12:20:07.560Z,32.8
2017-10-15T12:21:07.549Z,32.8
2017-10-15T12:22:07.875Z,32.8
2017-10-15T12:23:07.867Z,32.8
2017-10-15T12:24:07.732Z,32.8
2017-10-15T12:25:07.731Z,32.8
2017-10-15T12:26:07.864Z,32.8
2017-10-15T12:27:07.932Z,32.8
2017-10-15T12:28:08.224Z,32.8
2017-10-15T12:29:07.969Z,32.8
2017-10-15T12:30:08.241Z,32.8
2017-10-15T12:31:08.128Z,32.8
2017-10-15T12:32:08.416Z,32.8
2017-10-15T12:33:08.186Z,32.8
2017-10-15T12:34:08.732Z,32.8
2017-10-15T12:35:08.346Z,32.8
2017-10-15T12:36:08.469Z,32.8
2017-10-15T12:37:08.626Z,32.8
2017-10-15T12:38:08.478Z,32.8
2017-10-15T12:39:08.741Z,32.8
2017-10-15T12:40:09.098Z,32.8
2017-10-15T12:41:08.663Z,32.8
2017-10-15T12:42:08.786Z,32.8
2017-10-15T12:43:09.004Z,32.8
2017-10-15T12:44:08.815Z,32.8
2017-10-15T12:45:09.055Z,32.8
2017-10-15T12:46:09.146Z,32.9
2017-10-15T12:47:08.996Z,32.9
2017-10-15T12:48:08.981Z,32.9
2017-10-15T12:49:09.089Z,32.9
2017-10-15T12:50:09.227Z,32.9
2017-10-15T12:51:09.309Z,32.9
2017-10-15T12:52:09.673Z,32.9
2017-10-15T12:53:09.252Z,32.8
2017-10-15T12:54:09.497Z,32.8
2017-10-15T12:55:09.395Z,32.8
2017-10-15T12:56:09.557Z,32.9
2017-10-15T12:57:09.673Z,32.9
2017-10-15T12:58:09.850Z,32.9
2017-10-15T12:59:09.619Z,32.9
2017-10-15T13:00:09.924Z,32.9
2017-10-15T13:01:09.859Z,32.8
2017-10-15T13:02:10.100Z,32.9
2017-10-15T13:03:10.111Z,32.9
2017-10-15T13:04:10.185Z,32.9
2017-10-15T13:05:10.078Z,32.9
2017-10-15T13:06:10.190Z,32.9
2017-10-15T13:07:10.221Z,32.9
2017-10-15T13:08:10.173Z,32.9
2017-10-15T13:09:10.426Z,32.9
2017-10-15T13:10:10.761Z,32.9
2017-10-15T13:11:10.473Z,32.9
2017-10-15T13:12:10.581Z,32.9
2017-10-15T13:13:10.361Z,32.9
2017-10-15T13:14:10.715Z,32.9
2017-10-15T13:15:10.682Z,32.9
2017-10-15T13:16:10.819Z,32.9
2017-10-15T13:17:10.798Z,32.9
2017-10-15T13:18:10.662Z,32.9
2017-10-15T13:19:10.906Z,32.9
2017-10-15T13:20:10.768Z,32.9
2017-10-15T13:21:10.995Z,32.9
2017-10-15T13:22:11.317Z,32.9
2017-10-15T13:23:10.886Z,32.9
2017-10-15T13:24:10.875Z,32.9
2017-10-15T13:25:11.002Z,32.9
2017-10-15T13:26:11.030Z,32.9
2017-10-15T13:27:11.242Z,32.9
2017-10-15T13:28:11.574Z,32.9
2017-10-15T13:29:11.184Z,32.9
2017-10-15T13:30:11.369Z,32.9
2017-10-15T13:31:11.387Z,32.9
2017-10-15T13:32:11.241Z,32.8
2017-10-15T13:33:11.226Z,32.8
2017-10-15T13:34:11.807Z,32.8
2017-10-15T13:35:11.579Z,32.8